sensor_id;sensor_type;location;lat;lon;timestamp;P1;durP1;ratioP1;P2;durP2;ratioP2
51556;SDS011;38766;53.194;5.532;2023-05-23T00:01:21;20.67;;;10.15;;
51556;SDS011;38766;53.194;5.532;2023-05-23T00:03:48;21.45;;;9.35;;
51556;SDS011;38766;53.194;5.532;2023-05-23T00:06:17;22.35;;;10.23;;
51556;SDS011;38766;53.194;5.532;2023-05-23T00:08:45;24.90;;;9.20;;
51556;SDS011;38766;53.194;5.532;2023-05-23T00:11:10;20.70;;;9.77;;
51556;SDS011;38766;53.194;5.532;2023-05-23T00:13:37;24.40;;;9.98;;
51556;SDS011;38766;53.194;5.532;2023-05-23T00:16:03;22.45;;;9.63;;
51556;SDS011;38766;53.194;5.532;2023-05-23T00:18:33;25.85;;;9.18;;
51556;SDS011;38766;53.194;5.532;2023-05-23T00:20:59;19.35;;;8.63;;
51556;SDS011;38766;53.194;5.532;2023-05-23T00:23:26;21.15;;;8.00;;
51556;SDS011;38766;53.194;5.532;2023-05-23T00:25:54;24.17;;;8.82;;
51556;SDS011;38766;53.194;5.532;2023-05-23T00:28:20;24.60;;;8.20;;
51556;SDS011;38766;53.194;5.532;2023-05-23T00:30:46;21.42;;;8.65;;
51556;SDS011;38766;53.194;5.532;2023-05-23T00:33:15;22.25;;;9.00;;
51556;SDS011;38766;53.194;5.532;2023-05-23T00:35:42;19.73;;;8.68;;
51556;SDS011;38766;53.194;5.532;2023-05-23T00:38:08;19.98;;;9.30;;
51556;SDS011;38766;53.194;5.532;2023-05-23T00:40:35;19.35;;;9.95;;
51556;SDS011;38766;53.194;5.532;2023-05-23T00:43:01;27.10;;;10.23;;
51556;SDS011;38766;53.194;5.532;2023-05-23T00:45:26;23.77;;;9.73;;
51556;SDS011;38766;53.194;5.532;2023-05-23T00:47:52;22.90;;;9.13;;
51556;SDS011;38766;53.194;5.532;2023-05-23T00:50:18;22.95;;;8.52;;
51556;SDS011;38766;53.194;5.532;2023-05-23T00:52:45;22.75;;;9.55;;
51556;SDS011;38766;53.194;5.532;2023-05-23T00:55:13;18.27;;;8.23;;
51556;SDS011;38766;53.194;5.532;2023-05-23T00:57:39;22.20;;;8.88;;
51556;SDS011;38766;53.194;5.532;2023-05-23T01:00:11;20.33;;;7.75;;
51556;SDS011;38766;53.194;5.532;2023-05-23T01:02:42;20.80;;;9.10;;
51556;SDS011;38766;53.194;5.532;2023-05-23T01:05:09;20.30;;;8.98;;
51556;SDS011;38766;53.194;5.532;2023-05-23T01:07:38;27.52;;;9.80;;
51556;SDS011;38766;53.194;5.532;2023-05-23T01:10:04;16.30;;;8.45;;
51556;SDS011;38766;53.194;5.532;2023-05-23T01:12:34;21.40;;;8.75;;
51556;SDS011;38766;53.194;5.532;2023-05-23T01:15:09;24.77;;;9.07;;
51556;SDS011;38766;53.194;5.532;2023-05-23T01:20:56;20.40;;;9.15;;
51556;SDS011;38766;53.194;5.532;2023-05-23T01:23:22;22.05;;;8.48;;
51556;SDS011;38766;53.194;5.532;2023-05-23T01:26:30;24.27;;;9.05;;
51556;SDS011;38766;53.194;5.532;2023-05-23T01:29:23;18.80;;;7.88;;
51556;SDS011;38766;53.194;5.532;2023-05-23T01:31:53;18.20;;;8.98;;
51556;SDS011;38766;53.194;5.532;2023-05-23T01:34:21;23.08;;;7.80;;
51556;SDS011;38766;53.194;5.532;2023-05-23T01:36:48;18.15;;;7.47;;
51556;SDS011;38766;53.194;5.532;2023-05-23T01:39:17;23.52;;;8.20;;
51556;SDS011;38766;53.194;5.532;2023-05-23T01:41:43;23.08;;;9.20;;
51556;SDS011;38766;53.194;5.532;2023-05-23T01:44:08;18.80;;;9.07;;
51556;SDS011;38766;53.194;5.532;2023-05-23T01:46:34;25.70;;;8.40;;
51556;SDS011;38766;53.194;5.532;2023-05-23T01:49:03;25.98;;;8.45;;
51556;SDS011;38766;53.194;5.532;2023-05-23T01:51:31;29.95;;;7.97;;
51556;SDS011;38766;53.194;5.532;2023-05-23T01:53:58;19.02;;;7.15;;
51556;SDS011;38766;53.194;5.532;2023-05-23T01:56:23;21.20;;;7.53;;
51556;SDS011;38766;53.194;5.532;2023-05-23T01:58:51;20.17;;;7.25;;
51556;SDS011;38766;53.194;5.532;2023-05-23T02:01:16;15.35;;;6.75;;
51556;SDS011;38766;53.194;5.532;2023-05-23T02:03:42;17.83;;;6.45;;
51556;SDS011;38766;53.194;5.532;2023-05-23T02:06:08;15.50;;;6.57;;
51556;SDS011;38766;53.194;5.532;2023-05-23T02:08:34;20.02;;;7.32;;
51556;SDS011;38766;53.194;5.532;2023-05-23T02:11:00;21.65;;;6.57;;
51556;SDS011;38766;53.194;5.532;2023-05-23T02:13:25;15.95;;;6.35;;
51556;SDS011;38766;53.194;5.532;2023-05-23T02:15:51;18.48;;;6.10;;
51556;SDS011;38766;53.194;5.532;2023-05-23T02:18:16;17.35;;;6.88;;
51556;SDS011;38766;53.194;5.532;2023-05-23T02:20:42;15.82;;;5.90;;
51556;SDS011;38766;53.194;5.532;2023-05-23T02:23:08;19.00;;;5.75;;
51556;SDS011;38766;53.194;5.532;2023-05-23T02:25:34;16.20;;;5.25;;
51556;SDS011;38766;53.194;5.532;2023-05-23T02:28:00;17.48;;;5.10;;
51556;SDS011;38766;53.194;5.532;2023-05-23T02:30:25;15.20;;;5.93;;
51556;SDS011;38766;53.194;5.532;2023-05-23T02:32:51;16.00;;;5.15;;
51556;SDS011;38766;53.194;5.532;2023-05-23T02:35:17;15.00;;;4.95;;
51556;SDS011;38766;53.194;5.532;2023-05-23T02:37:42;16.23;;;5.15;;
51556;SDS011;38766;53.194;5.532;2023-05-23T02:40:08;19.70;;;5.90;;
51556;SDS011;38766;53.194;5.532;2023-05-23T02:42:34;17.60;;;5.18;;
51556;SDS011;38766;53.194;5.532;2023-05-23T02:45:00;12.15;;;4.78;;
51556;SDS011;38766;53.194;5.532;2023-05-23T02:47:26;14.73;;;4.18;;
51556;SDS011;38766;53.194;5.532;2023-05-23T02:49:51;14.93;;;4.93;;
51556;SDS011;38766;53.194;5.532;2023-05-23T02:52:17;12.40;;;4.65;;
51556;SDS011;38766;53.194;5.532;2023-05-23T02:54:43;18.75;;;6.20;;
51556;SDS011;38766;53.194;5.532;2023-05-23T02:57:08;11.68;;;4.80;;
51556;SDS011;38766;53.194;5.532;2023-05-23T02:59:34;15.45;;;4.78;;
51556;SDS011;38766;53.194;5.532;2023-05-23T03:02:00;13.15;;;5.28;;
51556;SDS011;38766;53.194;5.532;2023-05-23T03:04:26;18.33;;;5.70;;
51556;SDS011;38766;53.194;5.532;2023-05-23T03:06:51;15.55;;;5.13;;
51556;SDS011;38766;53.194;5.532;2023-05-23T03:09:18;16.75;;;5.30;;
51556;SDS011;38766;53.194;5.532;2023-05-23T03:11:44;12.95;;;5.63;;
51556;SDS011;38766;53.194;5.532;2023-05-23T03:14:10;18.40;;;6.55;;
51556;SDS011;38766;53.194;5.532;2023-05-23T03:16:36;13.30;;;5.10;;
51556;SDS011;38766;53.194;5.532;2023-05-23T03:19:01;16.17;;;5.65;;
51556;SDS011;38766;53.194;5.532;2023-05-23T03:21:28;16.27;;;6.25;;
51556;SDS011;38766;53.194;5.532;2023-05-23T03:23:55;18.63;;;6.60;;
51556;SDS011;38766;53.194;5.532;2023-05-23T03:26:21;14.77;;;5.75;;
51556;SDS011;38766;53.194;5.532;2023-05-23T03:28:48;12.70;;;4.78;;
51556;SDS011;38766;53.194;5.532;2023-05-23T03:31:15;19.17;;;5.15;;
51556;SDS011;38766;53.194;5.532;2023-05-23T03:33:41;18.65;;;6.38;;
51556;SDS011;38766;53.194;5.532;2023-05-23T03:36:06;17.35;;;5.13;;
51556;SDS011;38766;53.194;5.532;2023-05-23T03:38:32;17.48;;;5.82;;
51556;SDS011;38766;53.194;5.532;2023-05-23T03:40:58;16.17;;;5.38;;
51556;SDS011;38766;53.194;5.532;2023-05-23T03:43:23;19.85;;;7.00;;
51556;SDS011;38766;53.194;5.532;2023-05-23T03:45:49;19.98;;;5.95;;
51556;SDS011;38766;53.194;5.532;2023-05-23T03:48:15;11.48;;;4.93;;
51556;SDS011;38766;53.194;5.532;2023-05-23T03:50:40;15.27;;;6.40;;
51556;SDS011;38766;53.194;5.532;2023-05-23T03:53:06;12.75;;;5.25;;
51556;SDS011;38766;53.194;5.532;2023-05-23T03:55:32;18.48;;;6.80;;
51556;SDS011;38766;53.194;5.532;2023-05-23T03:57:58;13.02;;;5.13;;
51556;SDS011;38766;53.194;5.532;2023-05-23T04:00:24;12.65;;;5.63;;
51556;SDS011;38766;53.194;5.532;2023-05-23T04:02:50;13.27;;;5.15;;
51556;SDS011;38766;53.194;5.532;2023-05-23T04:05:15;12.10;;;5.32;;
51556;SDS011;38766;53.194;5.532;2023-05-23T04:07:42;14.30;;;6.40;;
51556;SDS011;38766;53.194;5.532;2023-05-23T04:10:08;21.10;;;5.88;;
51556;SDS011;38766;53.194;5.532;2023-05-23T04:12:34;12.75;;;5.43;;
51556;SDS011;38766;53.194;5.532;2023-05-23T04:14:59;11.60;;;5.28;;
51556;SDS011;38766;53.194;5.532;2023-05-23T04:17:25;11.15;;;5.40;;
51556;SDS011;38766;53.194;5.532;2023-05-23T04:19:53;12.60;;;5.55;;
51556;SDS011;38766;53.194;5.532;2023-05-23T04:22:19;15.20;;;5.97;;
51556;SDS011;38766;53.194;5.532;2023-05-23T04:24:44;14.23;;;6.07;;
51556;SDS011;38766;53.194;5.532;2023-05-23T04:27:10;16.38;;;6.00;;
51556;SDS011;38766;53.194;5.532;2023-05-23T04:29:36;13.02;;;5.65;;
51556;SDS011;38766;53.194;5.532;2023-05-23T04:32:02;13.75;;;5.38;;
51556;SDS011;38766;53.194;5.532;2023-05-23T04:34:27;14.73;;;5.93;;
51556;SDS011;38766;53.194;5.532;2023-05-23T04:36:54;9.95;;;5.18;;
51556;SDS011;38766;53.194;5.532;2023-05-23T04:39:20;13.10;;;5.93;;
51556;SDS011;38766;53.194;5.532;2023-05-23T04:41:45;12.13;;;5.32;;
51556;SDS011;38766;53.194;5.532;2023-05-23T04:44:11;13.90;;;5.70;;
51556;SDS011;38766;53.194;5.532;2023-05-23T04:46:39;14.45;;;6.05;;
51556;SDS011;38766;53.194;5.532;2023-05-23T04:49:06;13.55;;;4.93;;
51556;SDS011;38766;53.194;5.532;2023-05-23T04:51:32;12.38;;;4.90;;
51556;SDS011;38766;53.194;5.532;2023-05-23T04:53:59;19.90;;;5.03;;
51556;SDS011;38766;53.194;5.532;2023-05-23T04:56:25;13.50;;;5.00;;
51556;SDS011;38766;53.194;5.532;2023-05-23T04:58:52;23.02;;;5.15;;
51556;SDS011;38766;53.194;5.532;2023-05-23T05:01:18;14.90;;;4.80;;
51556;SDS011;38766;53.194;5.532;2023-05-23T05:03:43;12.63;;;4.05;;
51556;SDS011;38766;53.194;5.532;2023-05-23T05:06:09;13.27;;;4.13;;
51556;SDS011;38766;53.194;5.532;2023-05-23T05:08:35;10.82;;;3.90;;
51556;SDS011;38766;53.194;5.532;2023-05-23T05:11:00;14.02;;;3.67;;
51556;SDS011;38766;53.194;5.532;2023-05-23T05:13:26;19.63;;;4.75;;
51556;SDS011;38766;53.194;5.532;2023-05-23T05:15:52;17.50;;;5.40;;
51556;SDS011;38766;53.194;5.532;2023-05-23T05:18:18;18.25;;;5.57;;
51556;SDS011;38766;53.194;5.532;2023-05-23T05:20:43;12.88;;;4.32;;
51556;SDS011;38766;53.194;5.532;2023-05-23T05:23:09;16.95;;;4.10;;
51556;SDS011;38766;53.194;5.532;2023-05-23T05:25:35;18.55;;;4.65;;
51556;SDS011;38766;53.194;5.532;2023-05-23T05:28:02;17.08;;;5.05;;
51556;SDS011;38766;53.194;5.532;2023-05-23T05:30:31;19.65;;;4.85;;
51556;SDS011;38766;53.194;5.532;2023-05-23T05:33:03;14.63;;;4.68;;
51556;SDS011;38766;53.194;5.532;2023-05-23T05:35:30;20.13;;;4.70;;
51556;SDS011;38766;53.194;5.532;2023-05-23T05:37:56;19.70;;;4.47;;
51556;SDS011;38766;53.194;5.532;2023-05-23T05:40:22;20.48;;;5.43;;
51556;SDS011;38766;53.194;5.532;2023-05-23T05:42:48;24.50;;;4.90;;
51556;SDS011;38766;53.194;5.532;2023-05-23T05:45:13;20.27;;;5.15;;
51556;SDS011;38766;53.194;5.532;2023-05-23T05:47:39;18.17;;;4.53;;
51556;SDS011;38766;53.194;5.532;2023-05-23T05:50:05;18.65;;;4.93;;
51556;SDS011;38766;53.194;5.532;2023-05-23T05:52:33;11.88;;;4.20;;
51556;SDS011;38766;53.194;5.532;2023-05-23T05:55:03;18.17;;;4.20;;
51556;SDS011;38766;53.194;5.532;2023-05-23T05:57:38;19.15;;;4.43;;
51556;SDS011;38766;53.194;5.532;2023-05-23T06:00:05;17.13;;;4.47;;
51556;SDS011;38766;53.194;5.532;2023-05-23T06:02:39;15.50;;;4.30;;
51556;SDS011;38766;53.194;5.532;2023-05-23T06:05:07;21.85;;;5.28;;
51556;SDS011;38766;53.194;5.532;2023-05-23T06:07:36;19.25;;;5.10;;
51556;SDS011;38766;53.194;5.532;2023-05-23T06:10:02;19.98;;;3.65;;
51556;SDS011;38766;53.194;5.532;2023-05-23T06:12:28;15.07;;;4.72;;
51556;SDS011;38766;53.194;5.532;2023-05-23T06:14:54;18.65;;;4.25;;
51556;SDS011;38766;53.194;5.532;2023-05-23T06:17:19;19.63;;;4.15;;
51556;SDS011;38766;53.194;5.532;2023-05-23T06:19:45;18.73;;;4.47;;
51556;SDS011;38766;53.194;5.532;2023-05-23T06:22:10;15.73;;;4.28;;
51556;SDS011;38766;53.194;5.532;2023-05-23T06:24:36;17.73;;;4.43;;
51556;SDS011;38766;53.194;5.532;2023-05-23T06:27:02;15.50;;;4.53;;
51556;SDS011;38766;53.194;5.532;2023-05-23T06:29:28;19.17;;;4.15;;
51556;SDS011;38766;53.194;5.532;2023-05-23T06:31:55;21.20;;;4.72;;
51556;SDS011;38766;53.194;5.532;2023-05-23T06:34:21;15.52;;;4.28;;
51556;SDS011;38766;53.194;5.532;2023-05-23T06:36:47;16.25;;;4.32;;
51556;SDS011;38766;53.194;5.532;2023-05-23T06:39:13;22.85;;;4.75;;
51556;SDS011;38766;53.194;5.532;2023-05-23T06:41:39;20.35;;;4.78;;
51556;SDS011;38766;53.194;5.532;2023-05-23T06:44:04;16.67;;;4.05;;
51556;SDS011;38766;53.194;5.532;2023-05-23T06:46:30;16.23;;;3.88;;
51556;SDS011;38766;53.194;5.532;2023-05-23T06:48:56;15.13;;;4.57;;
51556;SDS011;38766;53.194;5.532;2023-05-23T06:51:21;15.02;;;4.40;;
51556;SDS011;38766;53.194;5.532;2023-05-23T06:53:47;13.85;;;3.83;;
51556;SDS011;38766;53.194;5.532;2023-05-23T06:56:13;18.17;;;4.13;;
51556;SDS011;38766;53.194;5.532;2023-05-23T06:58:39;16.73;;;4.47;;
51556;SDS011;38766;53.194;5.532;2023-05-23T07:01:05;13.32;;;3.53;;
51556;SDS011;38766;53.194;5.532;2023-05-23T07:03:30;20.55;;;4.65;;
51556;SDS011;38766;53.194;5.532;2023-05-23T07:05:57;22.63;;;4.40;;
51556;SDS011;38766;53.194;5.532;2023-05-23T07:08:22;12.85;;;3.72;;
51556;SDS011;38766;53.194;5.532;2023-05-23T07:10:48;18.75;;;4.88;;
51556;SDS011;38766;53.194;5.532;2023-05-23T07:13:14;15.02;;;4.47;;
51556;SDS011;38766;53.194;5.532;2023-05-23T07:15:40;16.73;;;4.63;;
51556;SDS011;38766;53.194;5.532;2023-05-23T07:18:05;17.45;;;4.35;;
51556;SDS011;38766;53.194;5.532;2023-05-23T07:20:31;17.05;;;4.72;;
51556;SDS011;38766;53.194;5.532;2023-05-23T07:22:58;22.42;;;4.47;;
51556;SDS011;38766;53.194;5.532;2023-05-23T07:25:24;17.20;;;4.57;;
51556;SDS011;38766;53.194;5.532;2023-05-23T07:27:51;20.48;;;3.95;;
51556;SDS011;38766;53.194;5.532;2023-05-23T07:30:21;10.93;;;3.72;;
51556;SDS011;38766;53.194;5.532;2023-05-23T07:32:47;14.85;;;4.22;;
51556;SDS011;38766;53.194;5.532;2023-05-23T07:35:16;20.45;;;4.47;;
51556;SDS011;38766;53.194;5.532;2023-05-23T07:37:42;16.92;;;3.85;;
51556;SDS011;38766;53.194;5.532;2023-05-23T07:40:08;16.40;;;4.13;;
51556;SDS011;38766;53.194;5.532;2023-05-23T07:42:34;26.15;;;4.95;;
51556;SDS011;38766;53.194;5.532;2023-05-23T07:45:01;20.92;;;4.03;;
51556;SDS011;38766;53.194;5.532;2023-05-23T07:47:27;18.08;;;4.55;;
51556;SDS011;38766;53.194;5.532;2023-05-23T07:49:53;12.15;;;4.00;;
51556;SDS011;38766;53.194;5.532;2023-05-23T07:52:18;13.65;;;4.22;;
51556;SDS011;38766;53.194;5.532;2023-05-23T07:54:44;17.17;;;4.15;;
51556;SDS011;38766;53.194;5.532;2023-05-23T07:57:10;23.40;;;4.25;;
51556;SDS011;38766;53.194;5.532;2023-05-23T07:59:36;15.43;;;3.83;;
51556;SDS011;38766;53.194;5.532;2023-05-23T08:02:02;13.68;;;3.53;;
51556;SDS011;38766;53.194;5.532;2023-05-23T08:04:28;15.32;;;3.67;;
51556;SDS011;38766;53.194;5.532;2023-05-23T08:06:55;17.10;;;3.60;;
51556;SDS011;38766;53.194;5.532;2023-05-23T08:09:21;22.23;;;4.05;;
51556;SDS011;38766;53.194;5.532;2023-05-23T08:11:47;18.27;;;4.45;;
51556;SDS011;38766;53.194;5.532;2023-05-23T08:14:13;14.50;;;4.10;;
51556;SDS011;38766;53.194;5.532;2023-05-23T08:16:39;18.92;;;4.43;;
51556;SDS011;38766;53.194;5.532;2023-05-23T08:19:04;21.38;;;4.00;;
51556;SDS011;38766;53.194;5.532;2023-05-23T08:21:30;15.05;;;3.70;;
51556;SDS011;38766;53.194;5.532;2023-05-23T08:23:56;15.15;;;3.70;;
51556;SDS011;38766;53.194;5.532;2023-05-23T08:26:22;17.25;;;3.75;;
51556;SDS011;38766;53.194;5.532;2023-05-23T08:28:47;16.77;;;4.38;;
51556;SDS011;38766;53.194;5.532;2023-05-23T08:31:13;12.35;;;3.17;;
51556;SDS011;38766;53.194;5.532;2023-05-23T08:33:39;10.68;;;4.03;;
51556;SDS011;38766;53.194;5.532;2023-05-23T08:36:05;14.27;;;3.70;;
51556;SDS011;38766;53.194;5.532;2023-05-23T08:38:30;20.48;;;3.60;;
51556;SDS011;38766;53.194;5.532;2023-05-23T08:40:56;12.02;;;3.83;;
51556;SDS011;38766;53.194;5.532;2023-05-23T08:43:25;14.73;;;3.70;;
51556;SDS011;38766;53.194;5.532;2023-05-23T08:45:51;12.38;;;3.72;;
51556;SDS011;38766;53.194;5.532;2023-05-23T08:48:19;11.60;;;3.33;;
51556;SDS011;38766;53.194;5.532;2023-05-23T08:50:46;12.88;;;4.80;;
51556;SDS011;38766;53.194;5.532;2023-05-23T08:53:15;15.80;;;4.00;;
51556;SDS011;38766;53.194;5.532;2023-05-23T08:55:45;14.48;;;4.28;;
51556;SDS011;38766;53.194;5.532;2023-05-23T08:58:12;15.10;;;3.65;;
51556;SDS011;38766;53.194;5.532;2023-05-23T09:00:39;12.45;;;3.75;;
51556;SDS011;38766;53.194;5.532;2023-05-23T09:03:06;14.75;;;3.88;;
51556;SDS011;38766;53.194;5.532;2023-05-23T09:05:33;13.80;;;3.42;;
51556;SDS011;38766;53.194;5.532;2023-05-23T09:07:58;14.43;;;3.20;;
51556;SDS011;38766;53.194;5.532;2023-05-23T09:10:24;12.63;;;3.22;;
51556;SDS011;38766;53.194;5.532;2023-05-23T09:12:53;10.98;;;3.83;;
51556;SDS011;38766;53.194;5.532;2023-05-23T09:15:19;16.80;;;3.80;;
51556;SDS011;38766;53.194;5.532;2023-05-23T09:17:47;18.65;;;4.25;;
51556;SDS011;38766;53.194;5.532;2023-05-23T09:20:14;16.48;;;3.72;;
51556;SDS011;38766;53.194;5.532;2023-05-23T09:22:45;13.00;;;3.58;;
51556;SDS011;38766;53.194;5.532;2023-05-23T09:25:12;12.40;;;3.67;;
51556;SDS011;38766;53.194;5.532;2023-05-23T09:27:38;16.00;;;3.22;;
51556;SDS011;38766;53.194;5.532;2023-05-23T09:30:07;9.73;;;3.20;;
51556;SDS011;38766;53.194;5.532;2023-05-23T09:32:34;15.38;;;3.85;;
51556;SDS011;38766;53.194;5.532;2023-05-23T09:35:00;12.93;;;4.22;;
51556;SDS011;38766;53.194;5.532;2023-05-23T09:37:38;13.98;;;3.45;;
51556;SDS011;38766;53.194;5.532;2023-05-23T09:40:08;13.48;;;3.53;;
51556;SDS011;38766;53.194;5.532;2023-05-23T09:42:36;16.13;;;4.03;;
51556;SDS011;38766;53.194;5.532;2023-05-23T09:45:10;13.32;;;3.78;;
51556;SDS011;38766;53.194;5.532;2023-05-23T09:47:36;16.55;;;3.55;;
51556;SDS011;38766;53.194;5.532;2023-05-23T09:50:02;17.40;;;3.30;;
51556;SDS011;38766;53.194;5.532;2023-05-23T09:52:35;16.30;;;3.55;;
51556;SDS011;38766;53.194;5.532;2023-05-23T09:55:04;12.73;;;3.75;;
51556;SDS011;38766;53.194;5.532;2023-05-23T09:57:31;12.05;;;3.90;;
51556;SDS011;38766;53.194;5.532;2023-05-23T09:59:59;20.95;;;4.35;;
51556;SDS011;38766;53.194;5.532;2023-05-23T10:05:35;19.77;;;4.13;;
51556;SDS011;38766;53.194;5.532;2023-05-23T10:08:10;13.07;;;3.45;;
51556;SDS011;38766;53.194;5.532;2023-05-23T10:13:21;13.35;;;3.88;;
51556;SDS011;38766;53.194;5.532;2023-05-23T10:19:02;15.70;;;3.70;;
51556;SDS011;38766;53.194;5.532;2023-05-23T10:21:35;14.68;;;3.60;;
51556;SDS011;38766;53.194;5.532;2023-05-23T10:24:08;21.00;;;4.20;;
51556;SDS011;38766;53.194;5.532;2023-05-23T10:26:35;19.92;;;4.85;;
51556;SDS011;38766;53.194;5.532;2023-05-23T10:29:01;16.67;;;3.65;;
51556;SDS011;38766;53.194;5.532;2023-05-23T10:31:27;16.02;;;4.43;;
51556;SDS011;38766;53.194;5.532;2023-05-23T10:34:07;14.50;;;4.18;;
51556;SDS011;38766;53.194;5.532;2023-05-23T10:36:58;13.90;;;3.60;;
51556;SDS011;38766;53.194;5.532;2023-05-23T10:42:02;10.75;;;3.47;;
51556;SDS011;38766;53.194;5.532;2023-05-23T10:47:01;13.02;;;3.58;;
51556;SDS011;38766;53.194;5.532;2023-05-23T10:49:38;14.25;;;3.92;;
51556;SDS011;38766;53.194;5.532;2023-05-23T10:52:05;12.07;;;3.17;;
51556;SDS011;38766;53.194;5.532;2023-05-23T10:54:35;12.70;;;3.67;;
51556;SDS011;38766;53.194;5.532;2023-05-23T10:57:07;13.63;;;3.95;;
51556;SDS011;38766;53.194;5.532;2023-05-23T10:59:35;17.60;;;3.40;;
51556;SDS011;38766;53.194;5.532;2023-05-23T11:02:02;13.50;;;3.47;;
51556;SDS011;38766;53.194;5.532;2023-05-23T11:04:35;12.20;;;3.55;;
51556;SDS011;38766;53.194;5.532;2023-05-23T11:07:00;15.73;;;3.63;;
51556;SDS011;38766;53.194;5.532;2023-05-23T11:09:26;12.98;;;3.30;;
51556;SDS011;38766;53.194;5.532;2023-05-23T11:17:48;15.80;;;3.10;;
51556;SDS011;38766;53.194;5.532;2023-05-23T11:19:55;10.65;;;3.30;;
51556;SDS011;38766;53.194;5.532;2023-05-23T11:22:27;16.50;;;4.07;;
51556;SDS011;38766;53.194;5.532;2023-05-23T11:24:55;12.02;;;3.38;;
51556;SDS011;38766;53.194;5.532;2023-05-23T11:27:24;13.27;;;3.40;;
51556;SDS011;38766;53.194;5.532;2023-05-23T11:30:11;14.73;;;3.85;;
51556;SDS011;38766;53.194;5.532;2023-05-23T11:32:38;15.30;;;4.30;;
51556;SDS011;38766;53.194;5.532;2023-05-23T11:35:05;10.88;;;3.50;;
51556;SDS011;38766;53.194;5.532;2023-05-23T11:37:37;12.10;;;3.10;;
51556;SDS011;38766;53.194;5.532;2023-05-23T11:42:59;14.95;;;3.40;;
51556;SDS011;38766;53.194;5.532;2023-05-23T11:45:27;11.48;;;3.10;;
51556;SDS011;38766;53.194;5.532;2023-05-23T11:47:53;9.40;;;3.42;;
51556;SDS011;38766;53.194;5.532;2023-05-23T11:50:18;9.88;;;2.90;;
51556;SDS011;38766;53.194;5.532;2023-05-23T11:52:45;12.70;;;3.65;;
51556;SDS011;38766;53.194;5.532;2023-05-23T11:55:15;13.82;;;3.72;;
51556;SDS011;38766;53.194;5.532;2023-05-23T11:57:45;14.60;;;3.95;;
51556;SDS011;38766;53.194;5.532;2023-05-23T12:00:11;13.25;;;4.18;;
51556;SDS011;38766;53.194;5.532;2023-05-23T12:02:41;13.93;;;3.38;;
51556;SDS011;38766;53.194;5.532;2023-05-23T12:05:12;17.65;;;3.95;;
51556;SDS011;38766;53.194;5.532;2023-05-23T12:07:45;11.43;;;3.20;;
51556;SDS011;38766;53.194;5.532;2023-05-23T12:10:13;12.68;;;3.70;;
51556;SDS011;38766;53.194;5.532;2023-05-23T12:12:40;15.73;;;3.88;;
51556;SDS011;38766;53.194;5.532;2023-05-23T12:15:11;12.30;;;3.65;;
51556;SDS011;38766;53.194;5.532;2023-05-23T12:17:37;15.60;;;3.53;;
51556;SDS011;38766;53.194;5.532;2023-05-23T12:20:07;12.27;;;3.10;;
51556;SDS011;38766;53.194;5.532;2023-05-23T12:22:35;10.82;;;3.30;;
51556;SDS011;38766;53.194;5.532;2023-05-23T12:25:01;19.65;;;3.50;;
51556;SDS011;38766;53.194;5.532;2023-05-23T12:27:29;12.35;;;3.13;;
51556;SDS011;38766;53.194;5.532;2023-05-23T12:30:04;11.88;;;3.40;;
51556;SDS011;38766;53.194;5.532;2023-05-23T12:32:38;9.70;;;3.10;;
51556;SDS011;38766;53.194;5.532;2023-05-23T12:35:05;10.25;;;3.38;;
51556;SDS011;38766;53.194;5.532;2023-05-23T12:37:33;18.33;;;3.63;;
51556;SDS011;38766;53.194;5.532;2023-05-23T12:40:08;12.45;;;3.20;;
51556;SDS011;38766;53.194;5.532;2023-05-23T12:45:20;11.18;;;3.67;;
51556;SDS011;38766;53.194;5.532;2023-05-23T12:47:54;17.17;;;4.03;;
51556;SDS011;38766;53.194;5.532;2023-05-23T12:50:20;10.27;;;3.40;;
51556;SDS011;38766;53.194;5.532;2023-05-23T12:52:46;13.13;;;2.85;;
51556;SDS011;38766;53.194;5.532;2023-05-23T12:55:11;14.82;;;2.95;;
51556;SDS011;38766;53.194;5.532;2023-05-23T12:57:37;14.13;;;4.20;;
51556;SDS011;38766;53.194;5.532;2023-05-23T13:00:03;14.63;;;2.72;;
51556;SDS011;38766;53.194;5.532;2023-05-23T13:02:30;10.85;;;3.33;;
51556;SDS011;38766;53.194;5.532;2023-05-23T13:04:56;11.57;;;3.60;;
51556;SDS011;38766;53.194;5.532;2023-05-23T13:07:22;9.75;;;2.50;;
51556;SDS011;38766;53.194;5.532;2023-05-23T13:09:48;16.80;;;3.30;;
51556;SDS011;38766;53.194;5.532;2023-05-23T13:12:13;15.48;;;3.63;;
51556;SDS011;38766;53.194;5.532;2023-05-23T13:14:40;34.97;;;5.97;;
51556;SDS011;38766;53.194;5.532;2023-05-23T13:17:05;11.88;;;2.72;;
51556;SDS011;38766;53.194;5.532;2023-05-23T13:19:31;11.32;;;3.13;;
51556;SDS011;38766;53.194;5.532;2023-05-23T13:21:57;9.18;;;2.80;;
51556;SDS011;38766;53.194;5.532;2023-05-23T13:24:24;14.07;;;2.70;;
51556;SDS011;38766;53.194;5.532;2023-05-23T13:26:50;36.78;;;7.10;;
51556;SDS011;38766;53.194;5.532;2023-05-23T13:29:16;11.02;;;3.03;;
51556;SDS011;38766;53.194;5.532;2023-05-23T13:31:41;12.45;;;2.53;;
51556;SDS011;38766;53.194;5.532;2023-05-23T13:34:07;12.25;;;3.63;;
51556;SDS011;38766;53.194;5.532;2023-05-23T13:36:33;16.75;;;3.38;;
51556;SDS011;38766;53.194;5.532;2023-05-23T13:38:59;12.02;;;2.42;;
51556;SDS011;38766;53.194;5.532;2023-05-23T13:41:25;15.18;;;3.65;;
51556;SDS011;38766;53.194;5.532;2023-05-23T13:43:51;10.63;;;2.55;;
51556;SDS011;38766;53.194;5.532;2023-05-23T13:46:17;11.93;;;3.15;;
51556;SDS011;38766;53.194;5.532;2023-05-23T13:48:43;13.50;;;2.70;;
51556;SDS011;38766;53.194;5.532;2023-05-23T13:51:08;12.95;;;2.97;;
51556;SDS011;38766;53.194;5.532;2023-05-23T13:53:34;15.27;;;3.95;;
51556;SDS011;38766;53.194;5.532;2023-05-23T13:56:00;10.30;;;2.90;;
51556;SDS011;38766;53.194;5.532;2023-05-23T13:58:25;14.98;;;2.95;;
51556;SDS011;38766;53.194;5.532;2023-05-23T14:00:51;11.88;;;3.38;;
51556;SDS011;38766;53.194;5.532;2023-05-23T14:03:17;11.32;;;3.05;;
51556;SDS011;38766;53.194;5.532;2023-05-23T14:05:43;10.40;;;2.42;;
51556;SDS011;38766;53.194;5.532;2023-05-23T14:08:09;9.30;;;2.95;;
51556;SDS011;38766;53.194;5.532;2023-05-23T14:10:37;16.83;;;3.13;;
51556;SDS011;38766;53.194;5.532;2023-05-23T14:13:02;9.82;;;3.20;;
51556;SDS011;38766;53.194;5.532;2023-05-23T14:15:30;10.02;;;2.67;;
51556;SDS011;38766;53.194;5.532;2023-05-23T14:17:55;12.95;;;2.70;;
51556;SDS011;38766;53.194;5.532;2023-05-23T14:20:21;13.18;;;3.15;;
51556;SDS011;38766;53.194;5.532;2023-05-23T14:22:47;9.52;;;2.63;;
51556;SDS011;38766;53.194;5.532;2023-05-23T14:25:14;10.10;;;3.03;;
51556;SDS011;38766;53.194;5.532;2023-05-23T14:27:40;12.45;;;3.40;;
51556;SDS011;38766;53.194;5.532;2023-05-23T14:30:06;10.98;;;4.07;;
51556;SDS011;38766;53.194;5.532;2023-05-23T14:32:32;14.57;;;3.75;;
51556;SDS011;38766;53.194;5.532;2023-05-23T14:35:03;11.63;;;2.70;;
51556;SDS011;38766;53.194;5.532;2023-05-23T14:37:33;16.73;;;3.67;;
51556;SDS011;38766;53.194;5.532;2023-05-23T14:39:58;10.07;;;2.90;;
51556;SDS011;38766;53.194;5.532;2023-05-23T14:42:24;10.32;;;3.13;;
51556;SDS011;38766;53.194;5.532;2023-05-23T14:44:51;10.02;;;2.47;;
51556;SDS011;38766;53.194;5.532;2023-05-23T14:47:19;11.80;;;2.60;;
51556;SDS011;38766;53.194;5.532;2023-05-23T14:49:45;9.85;;;3.10;;
51556;SDS011;38766;53.194;5.532;2023-05-23T14:52:11;11.85;;;3.35;;
51556;SDS011;38766;53.194;5.532;2023-05-23T14:54:37;13.38;;;2.70;;
51556;SDS011;38766;53.194;5.532;2023-05-23T14:57:07;8.55;;;2.97;;
51556;SDS011;38766;53.194;5.532;2023-05-23T14:59:35;14.32;;;3.17;;
51556;SDS011;38766;53.194;5.532;2023-05-23T15:02:04;11.82;;;2.63;;
51556;SDS011;38766;53.194;5.532;2023-05-23T15:04:32;13.07;;;2.95;;